KASX/ASX METAR and TAF weather

Enter ICAO airport designator
Station Type Date Time Source
KASX METAR 2019/06/19 02:53 UTC NOAA

KASX 190253Z AUTO 00000KT 10SM OVC110 11/11 A2995 RMK AO2 SLP143 T01060106 53003


Station Type Date Time Source
KASX Decoded METAR 2019/06/19 02:53 UTC NOAA

ASHLAND KENNEDY MEMORIAL, WI, United States (KASX) 46-33N 090-55W 251M
Jun 18, 2019 - 10:53 PM EDT / 2019.06.19 0253 UTC
Wind: Calm:0
Visibility: 10 mile(s):0
Sky conditions: overcast
Temperature: 51.1 F (10.6 C)
Dew Point: 51.1 F (10.6 C)
Relative Humidity: 100%
Pressure (altimeter): 29.95 in. Hg (1014 hPa)
Pressure tendency: 0.01 inches (0.3 hPa) higher than three hours ago
ob: KASX 190253Z AUTO 00000KT 10SM OVC110 11/11 A2995 RMK AO2 SLP143 T01060106 53003
cycle: 3

Station Type Date Time Source
KASX TAF UTC NOAA

Error!

Example: see airport list